Time;durP1;ratioP1;P1;durP2;ratioP2;P2;SDS_P1;SDS_P2;PMS_P1;PMS_P2;Temp;Humidity;BMP_temperature;BMP_pressure;BME280_temperature;BME280_humidity;BME280_pressure;Samples;Min_cycle;Max_cycle;Signal;HPM_P1;HPM_P2
2021/04/07 00:02:22;;;;;;;1.95;0.38;;;6.80;53.00;;;;;;4995036;28;20042;-79
2021/04/07 00:04:53;;;;;;;0.00;0.00;;;6.80;53.10;;;;;;4995706;28;20030;-79
2021/04/07 00:07:19;;;;;;;0.00;0.00;;;6.70;53.10;;;;;;4992179;28;20490;-80
2021/04/07 00:09:45;;;;;;;0.00;0.00;;;6.70;53.50;;;;;;4997945;28;20038;-79
2021/04/07 00:12:11;;;;;;;0.00;0.00;;;6.70;53.40;;;;;;4995529;28;20403;-79
2021/04/07 00:14:37;;;;;;;0.00;0.00;;;6.70;53.40;;;;;;4996727;28;20022;-79
2021/04/07 00:17:03;;;;;;;0.00;0.00;;;6.60;53.20;;;;;;4994855;28;20403;-79
2021/04/07 00:19:29;;;;;;;0.00;0.00;;;6.70;53.30;;;;;;4996011;28;20034;-79
2021/04/07 00:21:56;;;;;;;0.00;0.00;;;6.70;53.30;;;;;;4995924;28;20483;-79
2021/04/07 00:24:22;;;;;;;0.00;0.00;;;6.60;53.40;;;;;;4995142;28;20034;-79
2021/04/07 00:26:48;;;;;;;0.00;0.00;;;6.60;53.50;;;;;;4995896;28;20041;-80
2021/04/07 00:29:14;;;;;;;0.00;0.00;;;6.60;53.40;;;;;;4996387;28;20034;-79
2021/04/07 00:31:40;;;;;;;0.08;0.00;;;6.60;53.50;;;;;;4994017;28;20526;-79
2021/04/07 00:34:06;;;;;;;0.00;0.00;;;6.50;53.60;;;;;;4995311;28;20022;-79
2021/04/07 00:36:32;;;;;;;0.00;0.00;;;6.50;53.60;;;;;;4994508;28;20037;-79
2021/04/07 00:38:58;;;;;;;0.00;0.00;;;6.50;53.80;;;;;;4994756;28;20050;-79
2021/04/07 00:41:24;;;;;;;0.00;0.00;;;6.50;53.90;;;;;;4994577;28;20035;-80
2021/04/07 00:43:51;;;;;;;0.00;0.00;;;6.40;53.90;;;;;;4995041;28;20026;-80
2021/04/07 00:46:17;;;;;;;0.30;0.10;;;6.40;54.00;;;;;;4994534;28;20054;-79
2021/04/07 00:48:43;;;;;;;0.10;0.00;;;6.40;54.10;;;;;;4996012;28;20101;-79
2021/04/07 00:51:09;;;;;;;0.07;0.00;;;6.30;54.20;;;;;;4994905;28;20045;-79
2021/04/07 00:53:35;;;;;;;0.20;0.00;;;6.30;54.30;;;;;;4995841;28;20399;-79
2021/04/07 00:56:01;;;;;;;1.40;0.00;;;6.20;54.20;;;;;;4994737;28;20038;-79
2021/04/07 00:58:27;;;;;;;0.10;0.00;;;6.20;54.10;;;;;;4994131;28;20472;-80
2021/04/07 01:00:53;;;;;;;0.00;0.00;;;6.20;54.10;;;;;;4995295;28;20034;-79
2021/04/07 01:03:20;;;;;;;2.23;0.13;;;6.20;54.10;;;;;;4994600;28;20030;-79
2021/04/07 01:05:46;;;;;;;0.00;0.00;;;6.20;54.10;;;;;;4994247;28;20038;-79
2021/04/07 01:08:12;;;;;;;0.00;0.00;;;6.20;54.10;;;;;;4994544;28;20041;-79
2021/04/07 01:10:38;;;;;;;2.57;0.57;;;6.20;54.20;;;;;;4993872;28;20380;-79
2021/04/07 01:13:04;;;;;;;0.30;0.20;;;6.20;54.20;;;;;;4993948;28;20054;-79
2021/04/07 01:15:31;;;;;;;0.10;0.00;;;6.10;54.30;;;;;;4995058;28;20034;-79
2021/04/07 01:17:57;;;;;;;0.23;0.00;;;6.10;55.10;;;;;;4994300;28;20034;-79
2021/04/07 01:20:23;;;;;;;0.00;0.00;;;6.00;54.60;;;;;;4995665;28;20422;-79
2021/04/07 01:22:53;;;;;;;0.00;0.00;;;6.00;54.70;;;;;;4995458;28;20029;-79
2021/04/07 01:25:19;;;;;;;0.33;0.10;;;6.00;54.70;;;;;;4989069;28;20049;-79
2021/04/07 01:27:46;;;;;;;0.00;0.00;;;5.90;54.60;;;;;;4996923;28;20427;-79
2021/04/07 01:30:14;;;;;;;0.00;0.00;;;5.90;54.60;;;;;;4993577;28;20034;-80
2021/04/07 01:32:40;;;;;;;0.20;0.20;;;5.90;54.70;;;;;;4994242;28;20023;-79
2021/04/07 01:35:07;;;;;;;0.00;0.00;;;5.90;54.80;;;;;;4993909;28;20034;-79
2021/04/07 01:37:34;;;;;;;0.00;0.00;;;5.80;55.10;;;;;;4994915;28;20030;-80
2021/04/07 01:40:02;;;;;;;0.00;0.00;;;5.80;55.30;;;;;;4992798;28;20317;-79
2021/04/07 01:42:28;;;;;;;0.00;0.00;;;5.70;55.40;;;;;;4995064;28;20480;-80
2021/04/07 01:44:54;;;;;;;0.00;0.00;;;5.70;55.50;;;;;;4993426;28;20046;-81
2021/04/07 01:47:20;;;;;;;0.00;0.00;;;5.70;55.60;;;;;;4992676;28;20054;-78
2021/04/07 01:49:46;;;;;;;0.03;0.03;;;5.60;55.50;;;;;;4994903;28;20479;-81
2021/04/07 01:52:12;;;;;;;1.10;0.47;;;5.60;55.50;;;;;;4992677;28;20038;-80
2021/04/07 01:54:38;;;;;;;0.00;0.00;;;5.60;56.20;;;;;;4993365;28;20038;-81
2021/04/07 01:57:07;;;;;;;0.57;0.10;;;5.60;55.60;;;;;;4994651;28;20041;-80
2021/04/07 01:59:33;;;;;;;0.03;0.00;;;5.60;55.60;;;;;;4993535;28;20129;-80
2021/04/07 02:01:59;;;;;;;0.00;0.00;;;5.60;55.60;;;;;;4993289;28;20034;-81
2021/04/07 02:04:26;;;;;;;0.00;0.00;;;5.50;55.70;;;;;;4970799;28;20045;-81
2021/04/07 02:06:52;;;;;;;0.00;0.00;;;5.60;55.80;;;;;;4992573;28;20046;-80
2021/04/07 02:09:18;;;;;;;1.60;0.30;;;5.50;55.70;;;;;;4983162;28;20038;-80
2021/04/07 02:11:45;;;;;;;0.00;0.00;;;5.50;55.70;;;;;;4967731;28;20495;-80
2021/04/07 02:14:13;;;;;;;0.03;0.00;;;5.50;55.80;;;;;;4984510;28;20022;-80
2021/04/07 02:16:39;;;;;;;0.30;0.07;;;5.50;55.80;;;;;;4980333;28;20050;-80
2021/04/07 02:19:09;;;;;;;0.50;0.00;;;5.50;56.00;;;;;;4990607;28;20033;-79
2021/04/07 02:21:38;;;;;;;0.00;0.00;;;5.40;56.00;;;;;;4988335;28;20034;-82
2021/04/07 02:24:05;;;;;;;0.20;0.00;;;5.40;56.10;;;;;;4987891;28;20038;-80
2021/04/07 02:26:34;;;;;;;0.00;0.00;;;5.40;56.10;;;;;;4970730;28;20050;-80
2021/04/07 02:29:00;;;;;;;0.00;0.00;;;5.40;56.10;;;;;;4971917;28;20038;-80
2021/04/07 02:31:26;;;;;;;0.00;0.00;;;5.40;56.10;;;;;;4990224;28;20039;-80
2021/04/07 02:33:52;;;;;;;0.00;0.00;;;5.40;56.20;;;;;;4989525;28;20034;-80
2021/04/07 02:36:18;;;;;;;0.00;0.00;;;5.30;56.30;;;;;;4988237;28;20033;-80
2021/04/07 02:38:44;;;;;;;0.00;0.00;;;5.30;56.30;;;;;;4993439;28;20026;-80
2021/04/07 02:41:10;;;;;;;0.00;0.00;;;5.30;56.40;;;;;;4994391;28;20490;-80
2021/04/07 02:43:36;;;;;;;0.00;0.00;;;5.20;56.40;;;;;;4994049;28;20035;-80
2021/04/07 02:46:04;;;;;;;0.00;0.00;;;5.20;56.40;;;;;;4992629;28;20499;-80
2021/04/07 02:48:30;;;;;;;0.00;0.00;;;5.20;56.50;;;;;;4993919;28;20041;-80
2021/04/07 02:50:56;;;;;;;0.00;0.00;;;5.10;56.50;;;;;;4992772;28;20041;-80
2021/04/07 02:53:22;;;;;;;0.40;0.33;;;5.10;56.60;;;;;;4992314;28;20395;-80
2021/04/07 02:55:48;;;;;;;0.03;0.00;;;5.10;56.60;;;;;;4992866;28;20420;-81
2021/04/07 02:58:14;;;;;;;0.00;0.00;;;5.10;56.60;;;;;;4989035;28;20063;-80
2021/04/07 03:00:40;;;;;;;0.00;0.00;;;5.10;56.50;;;;;;4998372;28;20591;-80
2021/04/07 03:03:06;;;;;;;0.00;0.00;;;5.10;56.50;;;;;;5000313;28;20025;-81
2021/04/07 03:05:32;;;;;;;0.10;0.00;;;5.10;56.50;;;;;;5000263;28;20031;-82
2021/04/07 03:07:59;;;;;;;1.07;0.17;;;5.10;56.40;;;;;;4999931;28;20041;-80
2021/04/07 03:10:25;;;;;;;0.00;0.00;;;5.10;56.40;;;;;;4998155;28;20399;-80
2021/04/07 03:12:51;;;;;;;0.53;0.10;;;5.10;56.40;;;;;;5000144;28;20041;-80
2021/04/07 03:15:17;;;;;;;0.07;0.07;;;5.10;56.40;;;;;;4999626;28;20030;-80
2021/04/07 03:17:43;;;;;;;0.00;0.00;;;5.10;56.50;;;;;;4999111;28;20061;-80
2021/04/07 03:20:10;;;;;;;0.47;0.30;;;5.10;56.50;;;;;;4999004;28;20030;-80
2021/04/07 03:22:36;;;;;;;0.00;0.00;;;5.10;56.40;;;;;;4999556;28;20042;-80
2021/04/07 03:25:04;;;;;;;0.00;0.00;;;5.10;56.40;;;;;;4999305;28;20041;-80
2021/04/07 03:27:30;;;;;;;0.00;0.00;;;5.10;56.40;;;;;;4998826;28;20049;-80
2021/04/07 03:29:59;;;;;;;0.00;0.00;;;5.10;56.40;;;;;;4998844;28;20476;-80
2021/04/07 03:32:26;;;;;;;0.00;0.00;;;5.00;56.30;;;;;;4999834;28;20038;-80
2021/04/07 03:34:52;;;;;;;0.00;0.00;;;5.00;56.50;;;;;;4999939;28;20041;-80
2021/04/07 03:37:18;;;;;;;0.00;0.00;;;5.00;56.60;;;;;;4998873;28;20045;-80
2021/04/07 03:39:44;;;;;;;0.00;0.00;;;4.90;56.50;;;;;;5001510;28;20018;-80
2021/04/07 03:42:10;;;;;;;0.00;0.00;;;4.90;56.50;;;;;;4998693;28;20038;-80
2021/04/07 03:44:37;;;;;;;0.20;0.20;;;4.90;56.60;;;;;;4998561;28;20034;-80
2021/04/07 03:47:03;;;;;;;0.00;0.00;;;4.90;56.70;;;;;;4999593;28;20043;-80
2021/04/07 03:49:31;;;;;;;0.23;0.00;;;4.90;56.60;;;;;;4998515;28;20026;-80
2021/04/07 03:51:57;;;;;;;0.17;0.00;;;4.80;56.60;;;;;;4999040;28;20042;-80
2021/04/07 03:54:24;;;;;;;0.13;0.10;;;4.90;56.60;;;;;;4999871;28;20423;-80
2021/04/07 03:56:50;;;;;;;0.00;0.00;;;4.80;56.50;;;;;;4999753;28;20026;-80
2021/04/07 03:59:16;;;;;;;3.10;0.87;;;4.80;56.60;;;;;;4999841;28;20507;-81
2021/04/07 04:01:42;;;;;;;0.10;0.10;;;4.80;56.70;;;;;;4998198;28;20034;-80
2021/04/07 04:04:10;;;;;;;0.27;0.00;;;4.80;56.90;;;;;;4997779;28;20467;-80
2021/04/07 04:06:36;;;;;;;0.10;0.00;;;4.80;56.90;;;;;;4982587;28;20046;-80
2021/04/07 04:09:03;;;;;;;0.20;0.13;;;4.70;56.90;;;;;;4999713;28;20404;-80
2021/04/07 04:11:29;;;;;;;0.00;0.00;;;4.70;57.00;;;;;;4996782;28;20475;-80
2021/04/07 04:13:55;;;;;;;0.23;0.23;;;4.70;57.10;;;;;;4996512;28;20022;-80
2021/04/07 04:16:21;;;;;;;0.33;0.10;;;4.60;57.20;;;;;;4995378;28;20490;-80
2021/04/07 04:18:49;;;;;;;0.57;0.10;;;4.60;57.30;;;;;;4996234;28;20034;-80
2021/04/07 04:21:16;;;;;;;0.33;0.20;;;4.60;57.40;;;;;;4976213;28;20039;-79
2021/04/07 04:23:42;;;;;;;0.00;0.00;;;4.50;57.40;;;;;;4987146;28;20030;-80
2021/04/07 04:26:08;;;;;;;0.30;0.03;;;4.50;57.40;;;;;;4995036;28;20391;-80
2021/04/07 04:28:34;;;;;;;0.27;0.00;;;4.50;57.40;;;;;;4996380;28;20046;-82
2021/04/07 04:31:00;;;;;;;0.57;0.37;;;4.50;57.50;;;;;;4995214;28;20041;-80
2021/04/07 04:33:26;;;;;;;0.60;0.30;;;4.50;57.50;;;;;;4994632;28;20038;-80
2021/04/07 04:35:57;;;;;;;0.00;0.00;;;4.50;57.50;;;;;;4996268;28;20034;-80
2021/04/07 04:38:26;;;;;;;0.10;0.00;;;4.50;57.50;;;;;;4996046;28;20366;-80
2021/04/07 04:40:52;;;;;;;1.20;0.20;;;4.40;57.40;;;;;;4996172;28;20368;-80
2021/04/07 04:43:19;;;;;;;0.20;0.10;;;4.40;57.40;;;;;;4993935;28;20045;-81
2021/04/07 04:45:45;;;;;;;0.10;0.10;;;4.40;57.50;;;;;;4997048;28;20042;-80
2021/04/07 04:48:11;;;;;;;0.23;0.07;;;4.40;57.60;;;;;;4995500;28;20038;-81
2021/04/07 04:50:37;;;;;;;1.07;0.47;;;4.40;57.60;;;;;;4994799;28;20026;-80
2021/04/07 04:53:03;;;;;;;0.07;0.00;;;4.40;57.60;;;;;;4996043;28;20046;-79
2021/04/07 04:55:29;;;;;;;0.47;0.20;;;4.40;57.60;;;;;;4995606;28;20026;-80
2021/04/07 04:57:56;;;;;;;0.00;0.00;;;4.40;57.70;;;;;;4994238;28;20034;-80
2021/04/07 05:00:23;;;;;;;0.20;0.10;;;4.30;57.60;;;;;;4995342;28;20043;-80
2021/04/07 05:02:49;;;;;;;0.23;0.10;;;4.30;57.70;;;;;;4995514;28;20463;-81
2021/04/07 05:05:15;;;;;;;0.20;0.10;;;4.30;57.70;;;;;;4994486;28;20042;-80
2021/04/07 05:07:41;;;;;;;0.00;0.00;;;4.30;57.70;;;;;;4995597;28;20096;-80
2021/04/07 05:10:08;;;;;;;0.13;0.00;;;4.30;57.90;;;;;;4993669;28;20407;-80
2021/04/07 05:12:34;;;;;;;0.70;0.40;;;4.20;57.80;;;;;;4995884;28;20043;-80
2021/04/07 05:15:00;;;;;;;3.87;0.57;;;4.20;57.80;;;;;;4994448;28;20049;-80
2021/04/07 05:17:28;;;;;;;0.40;0.10;;;4.20;57.80;;;;;;4994969;28;20456;-80
2021/04/07 05:19:54;;;;;;;0.43;0.10;;;4.20;57.80;;;;;;4994415;28;20042;-80
2021/04/07 05:22:21;;;;;;;0.10;0.00;;;4.20;57.80;;;;;;4994350;28;20030;-80
2021/04/07 05:24:47;;;;;;;0.00;0.00;;;4.20;57.80;;;;;;4990382;28;20046;-80
2021/04/07 05:27:13;;;;;;;0.10;0.10;;;4.20;57.80;;;;;;4995033;28;20046;-80
2021/04/07 05:29:39;;;;;;;0.40;0.10;;;4.20;57.80;;;;;;4995197;28;20372;-80
2021/04/07 05:32:06;;;;;;;1.23;0.30;;;4.20;57.80;;;;;;4994461;28;20042;-80
2021/04/07 05:34:32;;;;;;;0.40;0.10;;;4.20;57.80;;;;;;5000433;28;20031;-81
2021/04/07 05:36:58;;;;;;;0.40;0.30;;;4.20;57.70;;;;;;4995361;28;20041;-80
2021/04/07 05:39:24;;;;;;;0.83;0.30;;;4.20;57.70;;;;;;4994905;28;20026;-79
2021/04/07 05:41:50;;;;;;;0.83;0.30;;;4.20;57.70;;;;;;4995047;28;20030;-80
2021/04/07 05:44:16;;;;;;;0.30;0.20;;;4.20;57.70;;;;;;4994833;28;20026;-80
2021/04/07 05:46:42;;;;;;;0.43;0.20;;;4.20;57.70;;;;;;4994057;28;20049;-80
2021/04/07 05:49:08;;;;;;;0.30;0.20;;;4.20;57.70;;;;;;4992848;28;20030;-80
2021/04/07 05:51:35;;;;;;;0.07;0.00;;;4.20;57.70;;;;;;4994669;28;20037;-80
2021/04/07 05:54:01;;;;;;;0.83;0.20;;;4.30;57.70;;;;;;4994901;28;20043;-80
2021/04/07 05:56:27;;;;;;;0.23;0.10;;;4.30;57.60;;;;;;4994652;28;20098;-80
2021/04/07 05:58:53;;;;;;;1.53;0.20;;;4.30;57.50;;;;;;4996974;28;20038;-82
2021/04/07 06:01:20;;;;;;;1.93;0.30;;;4.40;57.50;;;;;;4991709;28;20049;-81
2021/04/07 06:03:46;;;;;;;1.47;0.10;;;4.40;57.40;;;;;;4994488;28;20031;-80
2021/04/07 06:06:12;;;;;;;0.20;0.10;;;4.50;57.40;;;;;;4994491;28;20034;-80
2021/04/07 06:08:38;;;;;;;0.83;0.17;;;4.60;57.40;;;;;;4993270;28;20037;-80
2021/04/07 06:11:04;;;;;;;0.17;0.03;;;4.70;57.20;;;;;;4994272;28;20022;-81
2021/04/07 06:13:30;;;;;;;3.00;0.80;;;4.90;56.90;;;;;;4993026;28;20033;-80
2021/04/07 06:15:57;;;;;;;1.10;0.23;;;5.10;56.70;;;;;;4991744;28;20034;-80
2021/04/07 06:18:23;;;;;;;2.57;0.60;;;5.30;56.50;;;;;;4994458;28;20419;-80
2021/04/07 06:20:49;;;;;;;1.47;0.63;;;5.50;56.80;;;;;;4994577;28;20045;-82
2021/04/07 06:23:16;;;;;;;0.70;0.53;;;5.80;55.90;;;;;;4993113;28;20031;-80
2021/04/07 06:25:46;;;;;;;0.87;0.63;;;6.20;55.50;;;;;;4994262;28;20029;-80
2021/04/07 06:28:12;;;;;;;3.27;0.77;;;6.50;55.10;;;;;;4960843;28;20061;-82
2021/04/07 06:30:45;;;;;;;2.30;0.60;;;6.80;54.80;;;;;;4993438;28;20399;-80
2021/04/07 06:33:13;;;;;;;2.53;1.10;;;7.10;54.50;;;;;;4993998;28;20038;-81
2021/04/07 06:35:39;;;;;;;1.45;0.43;;;7.40;54.30;;;;;;4992578;28;20038;-81
2021/04/07 06:38:05;;;;;;;1.52;0.85;;;7.60;54.10;;;;;;4994015;28;20033;-82
2021/04/07 06:40:32;;;;;;;1.98;0.50;;;7.70;54.00;;;;;;4994201;28;20057;-81
2021/04/07 06:43:02;;;;;;;2.33;0.90;;;7.90;54.00;;;;;;4975770;28;20019;-80
2021/04/07 06:45:28;;;;;;;1.73;0.40;;;8.00;54.00;;;;;;4991918;28;20505;-80
2021/04/07 06:47:54;;;;;;;1.00;0.50;;;8.20;54.00;;;;;;4976805;28;20058;-81
2021/04/07 06:50:21;;;;;;;1.13;0.55;;;8.30;53.90;;;;;;4993704;28;20411;-81
2021/04/07 06:52:48;;;;;;;1.20;0.60;;;8.50;54.00;;;;;;4977369;28;20026;-81
2021/04/07 06:55:16;;;;;;;2.03;0.63;;;8.60;53.90;;;;;;4991799;28;20502;-81
2021/04/07 06:57:43;;;;;;;2.33;0.98;;;8.60;53.90;;;;;;4993753;28;20093;-81
2021/04/07 07:00:09;;;;;;;1.77;0.63;;;8.70;53.80;;;;;;4991715;28;20042;-81
2021/04/07 07:02:35;;;;;;;1.15;0.35;;;8.70;53.90;;;;;;4992543;28;20027;-81
2021/04/07 07:05:02;;;;;;;2.67;0.85;;;8.90;53.90;;;;;;4993809;28;20061;-81
2021/04/07 07:07:31;;;;;;;0.65;0.30;;;9.10;53.70;;;;;;4991956;28;20039;-82
2021/04/07 07:09:57;;;;;;;1.75;0.55;;;9.30;53.50;;;;;;4975610;28;20364;-81
2021/04/07 07:12:25;;;;;;;0.20;0.13;;;9.40;53.30;;;;;;4993716;28;20034;-80
2021/04/07 07:14:52;;;;;;;0.80;0.45;;;9.40;53.20;;;;;;4992126;28;20394;-81
2021/04/07 07:17:31;;;;;;;8.95;0.20;;;9.40;53.30;;;;;;4992102;28;20053;-81
2021/04/07 07:19:58;;;;;;;3.72;0.57;;;9.40;53.40;;;;;;4979630;28;20022;-82
2021/04/07 07:22:25;;;;;;;0.32;0.17;;;9.40;53.40;;;;;;4991500;28;20026;-81
2021/04/07 07:24:59;;;;;;;4.72;0.47;;;9.40;53.30;;;;;;4993782;28;20038;-81
2021/04/07 07:27:38;;;;;;;1.10;0.30;;;9.40;53.20;;;;;;4992191;28;20038;-81
2021/04/07 07:30:09;;;;;;;2.65;0.50;;;9.50;53.20;;;;;;4991840;28;20030;-83
2021/04/07 07:32:37;;;;;;;1.85;0.32;;;9.40;53.10;;;;;;4992444;28;20029;-82
2021/04/07 07:35:10;;;;;;;0.20;0.10;;;9.40;53.10;;;;;;4993459;28;20038;-82
2021/04/07 07:37:37;;;;;;;2.50;0.45;;;9.50;53.10;;;;;;4975989;28;20030;-81
2021/04/07 07:40:05;;;;;;;2.60;0.35;;;9.60;53.00;;;;;;4992788;28;20027;-81
2021/04/07 07:42:31;;;;;;;0.20;0.03;;;9.60;52.90;;;;;;4991863;28;20030;-81
2021/04/07 07:44:57;;;;;;;3.72;0.30;;;9.80;52.70;;;;;;4991942;28;20110;-81
2021/04/07 07:47:38;;;;;;;0.63;0.05;;;9.90;52.60;;;;;;4995772;28;20043;-81
2021/04/07 07:50:06;;;;;;;0.00;0.00;;;9.90;52.40;;;;;;4997099;28;20041;-82
2021/04/07 07:52:35;;;;;;;3.85;0.40;;;10.00;52.30;;;;;;4995080;28;20050;-81
2021/04/07 07:55:20;;;;;;;1.42;0.30;;;10.00;52.10;;;;;;4993185;28;20026;-82
2021/04/07 07:57:55;;;;;;;0.75;0.30;;;10.00;52.20;;;;;;4998131;28;20046;-81
2021/04/07 08:00:25;;;;;;;2.72;0.55;;;10.10;52.20;;;;;;4976230;28;20038;-81
2021/04/07 08:02:52;;;;;;;1.17;0.20;;;10.30;52.00;;;;;;4988597;28;20045;-81
2021/04/07 08:05:19;;;;;;;1.17;0.52;;;10.40;51.60;;;;;;4976292;28;20057;-81
2021/04/07 08:07:45;;;;;;;0.52;0.30;;;10.40;51.50;;;;;;4996362;28;20030;-81
2021/04/07 08:10:12;;;;;;;1.48;0.30;;;10.40;51.60;;;;;;4978685;28;20492;-81
2021/04/07 08:12:40;;;;;;;0.68;0.20;;;10.40;51.50;;;;;;4975758;28;20050;-82
2021/04/07 08:15:08;;;;;;;0.75;0.10;;;10.50;51.30;;;;;;4991068;28;20034;-82
2021/04/07 08:17:34;;;;;;;1.42;0.43;;;10.50;51.20;;;;;;4995265;28;20500;-81
2021/04/07 08:20:01;;;;;;;0.57;0.28;;;10.60;51.20;;;;;;4995668;28;20041;-82
2021/04/07 08:22:28;;;;;;;0.20;0.10;;;10.80;51.10;;;;;;4995700;28;20030;-83
2021/04/07 08:24:55;;;;;;;2.67;0.63;;;10.90;51.40;;;;;;4996065;28;20038;-83
2021/04/07 08:27:21;;;;;;;1.65;0.73;;;11.00;50.60;;;;;;4994976;28;20407;-81
2021/04/07 08:29:47;;;;;;;1.08;0.60;;;11.20;50.60;;;;;;4995382;28;20027;-81
2021/04/07 08:32:20;;;;;;;0.60;0.30;;;11.30;50.60;;;;;;4978763;28;20050;-81
2021/04/07 08:34:46;;;;;;;0.30;0.10;;;11.50;50.20;;;;;;4995188;28;20026;-82
2021/04/07 08:37:19;;;;;;;0.73;0.30;;;11.70;49.90;;;;;;4978490;28;20390;-81
2021/04/07 08:39:46;;;;;;;0.50;0.05;;;11.90;49.90;;;;;;4996048;28;20046;-81
2021/04/07 08:42:12;;;;;;;0.32;0.20;;;12.10;49.50;;;;;;4994861;28;20034;-81
2021/04/07 08:44:45;;;;;;;0.30;0.17;;;12.20;49.30;;;;;;4994779;28;20407;-81
2021/04/07 08:47:31;;;;;;;1.73;0.68;;;12.20;49.10;;;;;;4994413;28;20030;-80
2021/04/07 08:50:08;;;;;;;3.60;0.55;;;12.30;49.10;;;;;;4982070;28;20412;-82
2021/04/07 08:52:42;;;;;;;0.30;0.10;;;12.40;49.00;;;;;;4994862;28;20057;-83
2021/04/07 08:55:14;;;;;;;1.88;0.50;;;12.60;48.80;;;;;;4994714;28;20037;-81
2021/04/07 08:57:40;;;;;;;1.70;0.40;;;12.80;48.40;;;;;;4994253;28;20038;-82
2021/04/07 09:00:13;;;;;;;1.27;0.38;;;12.90;48.30;;;;;;4994185;28;20415;-82
2021/04/07 09:02:49;;;;;;;0.47;0.10;;;13.00;48.20;;;;;;4995750;28;20043;-81
2021/04/07 09:05:16;;;;;;;0.00;0.00;;;13.10;47.90;;;;;;4994603;28;20041;-81
2021/04/07 09:07:43;;;;;;;0.52;0.00;;;13.20;47.80;;;;;;4995522;28;20046;-81
2021/04/07 09:10:10;;;;;;;1.27;0.28;;;13.10;47.30;;;;;;4993315;28;20023;-82
2021/04/07 09:12:36;;;;;;;0.52;0.20;;;13.10;47.50;;;;;;4994485;28;20034;-82
2021/04/07 09:15:15;;;;;;;0.82;0.08;;;13.00;47.40;;;;;;4993821;28;20034;-81
2021/04/07 09:17:45;;;;;;;2.30;0.45;;;13.10;47.30;;;;;;4994391;28;20034;-81
2021/04/07 09:20:35;;;;;;;1.17;0.85;;;13.10;46.90;;;;;;4995518;28;20034;-81
2021/04/07 09:23:07;;;;;;;0.88;0.25;;;13.00;46.70;;;;;;5012739;28;20034;-81
2021/04/07 09:25:33;;;;;;;0.63;0.20;;;13.10;46.80;;;;;;4994984;28;20030;-81
2021/04/07 09:28:06;;;;;;;0.00;0.00;;;13.30;46.60;;;;;;4990361;28;20042;-82
2021/04/07 09:30:45;;;;;;;0.45;0.15;;;13.80;46.40;;;;;;5026093;28;20030;-82
2021/04/07 09:33:11;;;;;;;0.65;0.38;;;14.40;45.80;;;;;;4995101;28;20031;-81
2021/04/07 09:35:38;;;;;;;0.47;0.20;;;14.80;45.30;;;;;;4994080;28;20471;-82
2021/04/07 09:38:05;;;;;;;0.93;0.45;;;15.10;44.90;;;;;;4977721;28;20042;-82
2021/04/07 09:40:31;;;;;;;6.38;0.20;;;15.40;44.60;;;;;;4993654;28;20495;-82
2021/04/07 09:42:57;;;;;;;4.75;0.82;;;15.70;44.10;;;;;;4992931;28;20030;-82
2021/04/07 09:45:24;;;;;;;0.60;0.22;;;15.70;44.00;;;;;;4993218;28;20053;-81
2021/04/07 09:47:56;;;;;;;7.78;0.52;;;15.50;44.30;;;;;;4993779;28;20050;-83
2021/04/07 09:50:32;;;;;;;0.55;0.00;;;15.50;44.50;;;;;;4995219;28;20480;-82
2021/04/07 09:52:58;;;;;;;0.55;0.10;;;15.70;44.30;;;;;;4994903;28;20058;-83
2021/04/07 09:55:24;;;;;;;0.35;0.10;;;16.00;44.10;;;;;;4992689;28;20050;-81
2021/04/07 09:58:03;;;;;;;0.43;0.17;;;16.20;43.70;;;;;;4996029;28;20034;-81
2021/04/07 10:00:33;;;;;;;0.32;0.20;;;16.20;43.00;;;;;;4994224;28;20595;-82
2021/04/07 10:03:02;;;;;;;0.63;0.13;;;16.10;43.10;;;;;;4994561;28;20468;-82
2021/04/07 10:05:30;;;;;;;0.03;0.00;;;15.80;43.10;;;;;;4993193;28;20030;-82
2021/04/07 10:08:14;;;;;;;0.30;0.10;;;15.80;43.50;;;;;;4994110;28;20495;-81
2021/04/07 10:10:40;;;;;;;0.80;0.10;;;15.80;43.50;;;;;;4994370;28;20041;-81
2021/04/07 10:13:07;;;;;;;0.32;0.10;;;15.60;43.60;;;;;;4992367;28;20027;-82
2021/04/07 10:15:34;;;;;;;0.38;0.10;;;15.50;43.70;;;;;;4994175;28;20035;-81
2021/04/07 10:18:08;;;;;;;2.35;0.20;;;15.40;43.80;;;;;;4993080;28;20027;-81
2021/04/07 10:20:35;;;;;;;1.33;0.50;;;15.30;43.90;;;;;;4993255;28;20079;-81
2021/04/07 10:23:09;;;;;;;1.33;0.10;;;15.30;43.90;;;;;;4994090;28;20034;-82
2021/04/07 10:25:35;;;;;;;1.90;0.10;;;15.30;43.90;;;;;;4994212;28;20030;-83
2021/04/07 10:28:02;;;;;;;0.80;0.40;;;15.40;43.80;;;;;;4992344;28;20038;-81
2021/04/07 10:30:35;;;;;;;0.70;0.22;;;15.60;43.50;;;;;;4992445;28;20479;-82
2021/04/07 10:33:01;;;;;;;0.77;0.05;;;15.70;43.10;;;;;;4993019;28;20030;-81
2021/04/07 10:35:31;;;;;;;0.30;0.10;;;15.70;43.60;;;;;;4994335;28;20038;-82
2021/04/07 10:38:02;;;;;;;0.10;0.00;;;15.80;42.90;;;;;;4992667;28;20034;-82
2021/04/07 10:40:30;;;;;;;0.67;0.23;;;15.80;42.30;;;;;;4993467;28;20034;-83
2021/04/07 10:42:56;;;;;;;0.80;0.35;;;15.70;41.80;;;;;;4993421;28;20461;-81
2021/04/07 10:45:24;;;;;;;0.28;0.15;;;15.40;41.70;;;;;;4992214;28;22382;-81
2021/04/07 10:47:51;;;;;;;0.15;0.00;;;15.30;42.10;;;;;;4992353;28;20034;-81
2021/04/07 10:50:17;;;;;;;0.50;0.10;;;15.40;41.80;;;;;;4992534;28;20022;-81
2021/04/07 10:52:45;;;;;;;0.20;0.00;;;15.40;41.20;;;;;;4993955;28;20042;-81
2021/04/07 10:55:21;;;;;;;0.50;0.10;;;15.30;41.10;;;;;;4993023;28;20030;-81
2021/04/07 10:57:48;;;;;;;1.13;0.15;;;15.20;41.00;;;;;;4992705;28;20026;-81
2021/04/07 11:00:34;;;;;;;1.90;0.10;;;15.20;41.00;;;;;;4993239;28;20022;-83
2021/04/07 11:03:00;;;;;;;0.20;0.05;;;15.40;41.00;;;;;;4992395;28;20035;-81
2021/04/07 11:05:41;;;;;;;0.20;0.10;;;15.60;40.70;;;;;;4992263;28;20082;-81
2021/04/07 11:08:09;;;;;;;0.98;0.20;;;15.50;39.40;;;;;;4993589;28;20034;-81
2021/04/07 11:10:49;;;;;;;1.60;0.43;;;15.30;39.70;;;;;;4993662;28;20045;-82
2021/04/07 11:13:17;;;;;;;0.30;0.00;;;15.10;39.40;;;;;;4991758;28;20049;-82
2021/04/07 11:15:43;;;;;;;0.43;0.08;;;15.00;39.60;;;;;;4992051;28;20037;-81
2021/04/07 11:18:09;;;;;;;0.10;0.10;;;15.00;39.20;;;;;;4992446;28;20403;-81
2021/04/07 11:20:36;;;;;;;0.57;0.10;;;15.00;39.20;;;;;;4995372;28;20046;-82
2021/04/07 11:23:02;;;;;;;0.30;0.00;;;14.90;39.00;;;;;;4996317;28;20057;-81
2021/04/07 11:25:28;;;;;;;0.95;0.10;;;15.00;39.10;;;;;;4997258;28;20026;-81
2021/04/07 11:27:58;;;;;;;0.03;0.00;;;15.20;39.10;;;;;;4998876;28;20034;-82
2021/04/07 11:30:25;;;;;;;0.00;0.00;;;15.60;38.90;;;;;;4997091;28;20041;-81
2021/04/07 11:32:57;;;;;;;0.13;0.00;;;16.00;38.50;;;;;;4996155;28;20022;-81
2021/04/07 11:38:04;;;;;;;0.15;0.10;;;15.90;37.60;;;;;;5001358;28;20025;-81
2021/04/07 11:43:05;;;;;;;1.27;0.20;;;15.90;37.90;;;;;;5003011;28;20039;-82
2021/04/07 11:45:31;;;;;;;1.42;0.25;;;16.00;37.90;;;;;;4995415;28;20050;-82
2021/04/07 11:47:57;;;;;;;0.60;0.10;;;16.20;37.80;;;;;;4997333;28;20038;-82
2021/04/07 11:50:24;;;;;;;0.40;0.00;;;16.40;37.70;;;;;;4996718;28;20038;-82
2021/04/07 11:52:50;;;;;;;0.25;0.03;;;16.70;37.60;;;;;;4995955;28;20348;-82
2021/04/07 11:55:16;;;;;;;0.77;0.17;;;17.00;37.40;;;;;;4990981;28;20038;-83
2021/04/07 11:57:42;;;;;;;0.80;0.30;;;17.20;37.10;;;;;;4995984;28;20041;-82
2021/04/07 12:00:10;;;;;;;0.73;0.20;;;17.50;37.60;;;;;;4996406;28;20034;-82
2021/04/07 12:02:39;;;;;;;2.85;0.38;;;17.70;36.90;;;;;;4995636;28;20372;-82
2021/04/07 12:05:07;;;;;;;0.30;0.10;;;17.80;36.70;;;;;;4996979;28;20411;-82
2021/04/07 12:07:33;;;;;;;0.00;0.00;;;18.00;36.80;;;;;;4995651;28;20023;-82
2021/04/07 12:09:59;;;;;;;0.20;0.10;;;17.80;36.40;;;;;;4995776;28;20053;-81
2021/04/07 12:12:25;;;;;;;0.20;0.05;;;17.60;36.50;;;;;;4996669;28;20023;-82
2021/04/07 12:14:51;;;;;;;0.65;0.10;;;17.40;36.70;;;;;;4996616;28;20046;-81
2021/04/07 12:17:17;;;;;;;0.28;0.00;;;17.40;37.00;;;;;;4996059;28;20031;-82
2021/04/07 12:19:43;;;;;;;0.40;0.20;;;17.40;37.00;;;;;;4995388;28;20042;-81
2021/04/07 12:22:12;;;;;;;0.43;0.17;;;17.40;37.00;;;;;;4995809;28;20057;-82
2021/04/07 12:24:38;;;;;;;0.10;0.00;;;17.30;37.10;;;;;;4996603;28;20034;-82
2021/04/07 12:27:05;;;;;;;0.68;0.10;;;17.10;37.10;;;;;;4996389;28;20525;-81
2021/04/07 12:29:31;;;;;;;0.28;0.10;;;17.00;37.20;;;;;;4994983;28;20156;-82
2021/04/07 12:31:57;;;;;;;0.15;0.00;;;17.00;37.30;;;;;;4993573;28;20034;-83
2021/04/07 12:34:25;;;;;;;0.20;0.03;;;17.20;37.20;;;;;;4994314;28;20419;-82
2021/04/07 12:36:51;;;;;;;0.17;0.10;;;17.40;37.00;;;;;;4996502;28;20038;-81
2021/04/07 12:39:18;;;;;;;0.45;0.22;;;17.50;36.80;;;;;;4996194;28;20046;-81
2021/04/07 12:41:52;;;;;;;0.65;0.17;;;17.60;36.70;;;;;;4996087;28;20034;-82
2021/04/07 12:44:18;;;;;;;0.10;0.00;;;17.80;36.40;;;;;;4979719;28;20045;-81
2021/04/07 12:46:44;;;;;;;0.25;0.05;;;17.80;36.30;;;;;;4995299;28;20042;-82
2021/04/07 12:49:10;;;;;;;0.10;0.00;;;17.90;36.40;;;;;;4993840;28;20050;-81
2021/04/07 12:51:36;;;;;;;0.03;0.00;;;17.80;36.30;;;;;;4995895;28;20049;-82
2021/04/07 12:54:03;;;;;;;0.20;0.00;;;17.70;36.20;;;;;;4994709;28;20479;-81
2021/04/07 12:56:30;;;;;;;0.10;0.00;;;17.60;36.40;;;;;;4994776;28;20047;-82
2021/04/07 12:58:56;;;;;;;0.20;0.03;;;17.50;36.50;;;;;;4994760;28;20460;-82
2021/04/07 13:01:23;;;;;;;0.00;0.00;;;17.40;36.70;;;;;;4994246;28;20403;-82